East Olympia, Washington
Current Conditions -  °F | °C
As of 11:54 PM on Friday 24 Oct 2014 (Local Time) from KOLM Reporting Station
Overcast Overcast  
Wind Chill: 51°   Ceiling: 600
Heat Index: 51°   Visibility: 10mi
Dew Point: 49°   Wind: 9mph
Humidity: 92%   Direction: 360°N
Pressure: 29.72"   Gusts: NA
Location:  46.97°N, 122.84°W
Report Text: KOLM 250654Z 36008KT 10SM OVC006 11/09 A2972 RMK AO2 CIG 003V009 SLP065 T01060094
Loading
Personal Weather Stations






























Interactive Weather Map New forecast layout! Learn more

10-Day Weather Forecast

Advertisements
Track Severe Weather on mobile